HAZ1814 ZBYN-ZUUU
Flight info
| Callsign | HAZ1814 |
|---|---|
| Flight time | N/A |
| Altitude | 36100 |
| Route | AGVUR W87 GODON W43 SAVPA W276 ANRUG W279 ONEBA G212 SUBUL W230 AKDIK AKDIK2E |
| Aircraft | B77W/H-SDE1E2E3FGHIJ2J3J4J5M1RWXY/LB1D1 |
Departure
| Time | 2026-04-29 04:36 |
|---|---|
| Airport | Taiyuan Wusu International Airport (ZBYN) |
Arrival
| Time | N/A |
|---|---|
| Airport | Chengdu Shuangliu International Airport (ZUUU) |
| Time | Latitude | Longitude | Altitude | Speed | Heading |
|---|---|---|---|---|---|
| 2026-04-29 04:17 | 37.75261 | 112.62670 | 2595 ft | 0 kts | 36° |
| 2026-04-29 04:26 | 37.75252 | 112.62662 | 2595 ft | 2 kts | 44° |
| 2026-04-29 04:27 | 37.75243 | 112.62647 | 2595 ft | 2 kts | 60° |
| 2026-04-29 04:27 | 37.75236 | 112.62630 | 2595 ft | 2 kts | 73° |
| 2026-04-29 04:27 | 37.75233 | 112.62612 | 2595 ft | 2 kts | 86° |
| 2026-04-29 04:27 | 37.75234 | 112.62593 | 2595 ft | 2 kts | 99° |
| 2026-04-29 04:28 | 37.75237 | 112.62575 | 2595 ft | 2 kts | 112° |
| 2026-04-29 04:28 | 37.75244 | 112.62558 | 2595 ft | 2 kts | 124° |
| 2026-04-29 04:28 | 37.75253 | 112.62543 | 2595 ft | 2 kts | 129° |
| 2026-04-29 04:28 | 37.75262 | 112.62529 | 2595 ft | 0 kts | 128° |
| 2026-04-29 04:29 | 37.75263 | 112.62528 | 2595 ft | 0 kts | 127° |
| 2026-04-29 04:30 | 37.75262 | 112.62528 | 2595 ft | 1 kts | 127° |
| 2026-04-29 04:30 | 37.75148 | 112.62517 | 2595 ft | 16 kts | 208° |
| 2026-04-29 04:31 | 37.75058 | 112.62577 | 2595 ft | 15 kts | 124° |
| 2026-04-29 04:31 | 37.74996 | 112.62688 | 2595 ft | 15 kts | 126° |
| 2026-04-29 04:31 | 37.74926 | 112.62804 | 2595 ft | 17 kts | 127° |
| 2026-04-29 04:31 | 37.74845 | 112.62939 | 2595 ft | 21 kts | 127° |
| 2026-04-29 04:32 | 37.74750 | 112.63097 | 2595 ft | 24 kts | 126° |
| 2026-04-29 04:32 | 37.74642 | 112.63281 | 2595 ft | 27 kts | 128° |
| 2026-04-29 04:32 | 37.74524 | 112.63474 | 2595 ft | 26 kts | 127° |
| 2026-04-29 04:32 | 37.74420 | 112.63654 | 2595 ft | 24 kts | 126° |
| 2026-04-29 04:33 | 37.74323 | 112.63821 | 2595 ft | 23 kts | 127° |
| 2026-04-29 04:33 | 37.74220 | 112.63989 | 2595 ft | 23 kts | 127° |
| 2026-04-29 04:33 | 37.74124 | 112.64148 | 2595 ft | 21 kts | 127° |
| 2026-04-29 04:33 | 37.74036 | 112.64291 | 2595 ft | 19 kts | 128° |
| 2026-04-29 04:34 | 37.73957 | 112.64421 | 2595 ft | 17 kts | 125° |
| 2026-04-29 04:34 | 37.73888 | 112.64541 | 2595 ft | 16 kts | 127° |
| 2026-04-29 04:34 | 37.73822 | 112.64649 | 2595 ft | 14 kts | 128° |
| 2026-04-29 04:34 | 37.73764 | 112.64748 | 2595 ft | 12 kts | 130° |
| 2026-04-29 04:35 | 37.73689 | 112.64754 | 2595 ft | 11 kts | 212° |
| 2026-04-29 04:35 | 37.73629 | 112.64693 | 2595 ft | 10 kts | 230° |
| 2026-04-29 04:35 | 37.73635 | 112.64619 | 2595 ft | 9 kts | 305° |
| 2026-04-29 04:35 | 37.73692 | 112.64519 | 2595 ft | 31 kts | 307° |
| 2026-04-29 04:36 | 37.73974 | 112.64048 | 2595 ft | 99 kts | 306° |
| 2026-04-29 04:36 | 37.74508 | 112.63158 | 2595 ft | 156 kts | 307° |
| 2026-04-29 04:36 | 37.75265 | 112.61931 | 2815 ft | 184 kts | 308° |
| 2026-04-29 04:36 | 37.76049 | 112.60674 | 3484 ft | 187 kts | 309° |
| 2026-04-29 04:37 | 37.76849 | 112.59300 | 4022 ft | 199 kts | 307° |
| 2026-04-29 04:37 | 37.77716 | 112.57809 | 4406 ft | 217 kts | 308° |
| 2026-04-29 04:37 | 37.78661 | 112.56222 | 4866 ft | 235 kts | 308° |
| 2026-04-29 04:37 | 37.79665 | 112.54541 | 5355 ft | 251 kts | 308° |
| 2026-04-29 04:38 | 37.80747 | 112.52729 | 5874 ft | 267 kts | 308° |
| 2026-04-29 04:38 | 37.81869 | 112.50845 | 6701 ft | 270 kts | 308° |
| 2026-04-29 04:38 | 37.82997 | 112.48953 | 7507 ft | 274 kts | 308° |
| 2026-04-29 04:38 | 37.84135 | 112.47042 | 8323 ft | 276 kts | 308° |
| 2026-04-29 04:39 | 37.85302 | 112.45082 | 9117 ft | 280 kts | 308° |
| 2026-04-29 04:39 | 37.86490 | 112.43085 | 9913 ft | 283 kts | 308° |
| 2026-04-29 04:39 | 37.87682 | 112.41082 | 10604 ft | 289 kts | 308° |
| 2026-04-29 04:39 | 37.88934 | 112.38977 | 11013 ft | 307 kts | 308° |
| 2026-04-29 04:40 | 37.90212 | 112.36727 | 11405 ft | 325 kts | 304° |
| 2026-04-29 04:40 | 37.91302 | 112.34063 | 11798 ft | 344 kts | 293° |
| 2026-04-29 04:40 | 37.92043 | 112.31034 | 12174 ft | 364 kts | 283° |
| 2026-04-29 04:40 | 37.92370 | 112.27808 | 12606 ft | 380 kts | 276° |
| 2026-04-29 04:41 | 37.92571 | 112.24412 | 13344 ft | 387 kts | 276° |
| 2026-04-29 04:41 | 37.92780 | 112.21019 | 14167 ft | 392 kts | 276° |
| 2026-04-29 04:41 | 37.93005 | 112.17509 | 15018 ft | 397 kts | 276° |
| 2026-04-29 04:41 | 37.93236 | 112.13987 | 15882 ft | 401 kts | 277° |
| 2026-04-29 04:42 | 37.93472 | 112.10444 | 16704 ft | 406 kts | 277° |
| 2026-04-29 04:42 | 37.93530 | 112.06868 | 17477 ft | 413 kts | 268° |
| 2026-04-29 04:42 | 37.93122 | 112.03213 | 18256 ft | 421 kts | 259° |
| 2026-04-29 04:42 | 37.92218 | 111.99613 | 19064 ft | 427 kts | 249° |
| 2026-04-29 04:43 | 37.90812 | 111.96184 | 19864 ft | 433 kts | 239° |
| 2026-04-29 04:43 | 37.88987 | 111.93148 | 20607 ft | 439 kts | 229° |
| 2026-04-29 04:43 | 37.86738 | 111.90514 | 21361 ft | 444 kts | 218° |
| 2026-04-29 04:43 | 37.84112 | 111.88382 | 22102 ft | 448 kts | 208° |
| 2026-04-29 04:44 | 37.81193 | 111.86837 | 22783 ft | 453 kts | 199° |
| 2026-04-29 04:44 | 37.78159 | 111.85574 | 23538 ft | 456 kts | 199° |
| 2026-04-29 04:44 | 37.75111 | 111.84288 | 24222 ft | 460 kts | 199° |
| 2026-04-29 04:44 | 37.72047 | 111.82965 | 24838 ft | 463 kts | 200° |
| 2026-04-29 04:45 | 37.68953 | 111.81606 | 25370 ft | 468 kts | 201° |
| 2026-04-29 04:45 | 37.65819 | 111.80209 | 25895 ft | 472 kts | 201° |
| 2026-04-29 04:45 | 37.62676 | 111.78799 | 26470 ft | 474 kts | 201° |
| 2026-04-29 04:45 | 37.59615 | 111.77135 | 27039 ft | 474 kts | 211° |
| 2026-04-29 04:46 | 37.56862 | 111.74948 | 27529 ft | 475 kts | 220° |
| 2026-04-29 04:46 | 37.54382 | 111.72208 | 27992 ft | 476 kts | 230° |
| 2026-04-29 04:46 | 37.52302 | 111.69054 | 28532 ft | 474 kts | 238° |
| 2026-04-29 04:46 | 37.50446 | 111.65653 | 29110 ft | 475 kts | 239° |
| 2026-04-29 04:47 | 37.48576 | 111.62157 | 29676 ft | 476 kts | 240° |
| 2026-04-29 04:47 | 37.46721 | 111.58693 | 30318 ft | 474 kts | 240° |
| 2026-04-29 04:47 | 37.44907 | 111.55314 | 31160 ft | 466 kts | 240° |
| 2026-04-29 04:47 | 37.43124 | 111.51996 | 31967 ft | 459 kts | 240° |
| 2026-04-29 04:48 | 37.41367 | 111.48730 | 32626 ft | 455 kts | 240° |
| 2026-04-29 04:48 | 37.39605 | 111.45456 | 33148 ft | 453 kts | 240° |
| 2026-04-29 04:48 | 37.37854 | 111.42205 | 33582 ft | 452 kts | 240° |
| 2026-04-29 04:48 | 37.36102 | 111.38959 | 34097 ft | 451 kts | 240° |
| 2026-04-29 04:49 | 37.34357 | 111.35727 | 34605 ft | 450 kts | 240° |
| 2026-04-29 04:49 | 37.32622 | 111.32519 | 34917 ft | 449 kts | 239° |
| 2026-04-29 04:49 | 37.30899 | 111.29334 | 35321 ft | 448 kts | 239° |
| 2026-04-29 04:49 | 37.29152 | 111.26110 | 35839 ft | 446 kts | 239° |
| 2026-04-29 04:50 | 37.27408 | 111.22891 | 36254 ft | 447 kts | 239° |
| 2026-04-29 04:50 | 37.23902 | 111.16437 | 36320 ft | 443 kts | 239° |
| 2026-04-29 04:51 | 37.20442 | 111.10078 | 36298 ft | 442 kts | 239° |
| 2026-04-29 04:51 | 37.17008 | 111.03777 | 36320 ft | 443 kts | 239° |
| 2026-04-29 04:52 | 37.13555 | 110.97455 | 36298 ft | 441 kts | 239° |
| 2026-04-29 04:52 | 37.10115 | 110.91166 | 36316 ft | 443 kts | 239° |
| 2026-04-29 04:53 | 37.06679 | 110.84900 | 36300 ft | 441 kts | 240° |
| 2026-04-29 04:53 | 37.03223 | 110.78604 | 36332 ft | 442 kts | 239° |
| 2026-04-29 04:54 | 36.99774 | 110.72337 | 36285 ft | 440 kts | 240° |
| 2026-04-29 04:54 | 36.96371 | 110.65973 | 36282 ft | 440 kts | 240° |
| 2026-04-29 04:55 | 36.92999 | 110.59647 | 36301 ft | 441 kts | 240° |
| 2026-04-29 04:55 | 36.89628 | 110.53342 | 36301 ft | 438 kts | 241° |
| 2026-04-29 04:56 | 36.86250 | 110.47039 | 36287 ft | 441 kts | 240° |
| 2026-04-29 04:56 | 36.82875 | 110.40756 | 36290 ft | 440 kts | 241° |
| 2026-04-29 04:57 | 36.79516 | 110.34515 | 36295 ft | 440 kts | 240° |
| 2026-04-29 04:57 | 36.76120 | 110.28217 | 36297 ft | 441 kts | 240° |
| 2026-04-29 04:58 | 36.72723 | 110.21929 | 36303 ft | 439 kts | 240° |
| 2026-04-29 04:58 | 36.69325 | 110.15653 | 36298 ft | 440 kts | 240° |
| 2026-04-29 04:59 | 36.65927 | 110.09387 | 36304 ft | 438 kts | 240° |
| 2026-04-29 04:59 | 36.62528 | 110.03130 | 36299 ft | 441 kts | 240° |
| 2026-04-29 05:00 | 36.59112 | 109.96854 | 36313 ft | 441 kts | 240° |
| 2026-04-29 05:00 | 36.55684 | 109.90571 | 36309 ft | 439 kts | 240° |
| 2026-04-29 05:01 | 36.52228 | 109.84245 | 36316 ft | 440 kts | 240° |
| 2026-04-29 05:01 | 36.48784 | 109.77952 | 36310 ft | 439 kts | 241° |
| 2026-04-29 05:02 | 36.45328 | 109.71649 | 36314 ft | 440 kts | 241° |
| 2026-04-29 05:02 | 36.41866 | 109.65347 | 36312 ft | 439 kts | 241° |
| 2026-04-29 05:03 | 36.38421 | 109.59089 | 36316 ft | 438 kts | 241° |
| 2026-04-29 05:03 | 36.34947 | 109.52788 | 36312 ft | 439 kts | 241° |
| 2026-04-29 05:04 | 36.31495 | 109.46541 | 36311 ft | 438 kts | 241° |
| 2026-04-29 05:04 | 36.27494 | 109.40730 | 36301 ft | 449 kts | 227° |
| 2026-04-29 05:05 | 36.22212 | 109.36416 | 36300 ft | 458 kts | 213° |
| 2026-04-29 05:05 | 36.16419 | 109.32933 | 36311 ft | 463 kts | 212° |
| 2026-04-29 05:06 | 36.10595 | 109.29456 | 36313 ft | 461 kts | 212° |
| 2026-04-29 05:06 | 36.04798 | 109.25996 | 36314 ft | 460 kts | 212° |
| 2026-04-29 05:07 | 35.98991 | 109.22533 | 36312 ft | 460 kts | 212° |
| 2026-04-29 05:07 | 35.93195 | 109.19082 | 36304 ft | 458 kts | 212° |
| 2026-04-29 05:08 | 35.87416 | 109.15640 | 36306 ft | 460 kts | 212° |
| 2026-04-29 05:08 | 35.81378 | 109.12504 | 36307 ft | 466 kts | 206° |
| 2026-04-29 05:09 | 35.75307 | 109.09807 | 36298 ft | 464 kts | 206° |
| 2026-04-29 05:09 | 35.69183 | 109.07089 | 36303 ft | 464 kts | 207° |
| 2026-04-29 05:10 | 35.63058 | 109.04372 | 36301 ft | 464 kts | 207° |
| 2026-04-29 05:10 | 35.56966 | 109.01674 | 36299 ft | 463 kts | 207° |
| 2026-04-29 05:11 | 35.50859 | 108.98972 | 36297 ft | 463 kts | 206° |
| 2026-04-29 05:11 | 35.44755 | 108.96274 | 36302 ft | 464 kts | 207° |
| 2026-04-29 05:12 | 35.38685 | 108.93596 | 36298 ft | 463 kts | 206° |
| 2026-04-29 05:12 | 35.32578 | 108.90906 | 36304 ft | 464 kts | 206° |
| 2026-04-29 05:13 | 35.26460 | 108.88215 | 36301 ft | 462 kts | 206° |
| 2026-04-29 05:13 | 35.20409 | 108.85558 | 36291 ft | 462 kts | 206° |
| 2026-04-29 05:14 | 35.14333 | 108.82894 | 36295 ft | 463 kts | 206° |
| 2026-04-29 05:14 | 35.08268 | 108.80241 | 36287 ft | 461 kts | 206° |
| 2026-04-29 05:15 | 35.02200 | 108.77588 | 36290 ft | 462 kts | 206° |
| 2026-04-29 05:15 | 34.96149 | 108.74948 | 36281 ft | 461 kts | 206° |
| 2026-04-29 05:16 | 34.90056 | 108.72294 | 36274 ft | 461 kts | 206° |
| 2026-04-29 05:16 | 34.84004 | 108.69660 | 36268 ft | 462 kts | 206° |
| 2026-04-29 05:17 | 34.77931 | 108.67023 | 36266 ft | 463 kts | 206° |
| 2026-04-29 05:17 | 34.71829 | 108.64378 | 36262 ft | 462 kts | 206° |
| 2026-04-29 05:18 | 34.65728 | 108.61737 | 36261 ft | 461 kts | 206° |
| 2026-04-29 05:18 | 34.59662 | 108.59115 | 36255 ft | 461 kts | 206° |
| 2026-04-29 05:19 | 34.54612 | 108.56935 | 36249 ft | 462 kts | 206° |